createdAt,value
2018-10-05T00:05:42.260Z,86.80
2018-10-05T00:08:16.681Z,86.80
2018-10-05T00:31:02.492Z,87.60
2018-10-05T00:33:38.556Z,87.80
2018-10-05T00:36:13.582Z,87.80
2018-10-05T00:38:47.391Z,87.60
2018-10-05T00:41:23.984Z,87.60
2018-10-05T00:44:00.526Z,87.70
2018-10-05T00:46:34.536Z,87.60
2018-10-05T00:49:10.390Z,87.60
2018-10-05T00:51:44.806Z,87.70
2018-10-05T00:54:18.205Z,87.90
2018-10-05T00:56:54.465Z,87.80
2018-10-05T00:59:28.474Z,88.00
2018-10-05T01:02:03.508Z,88.40
2018-10-05T01:04:38.542Z,88.70
2018-10-05T01:07:13.575Z,88.70
2018-10-05T01:09:47.584Z,88.50
2018-10-05T01:12:23.231Z,88.30
2018-10-05T01:14:58.675Z,88.10
2018-10-05T01:17:32.893Z,88.10
2018-10-05T01:20:06.695Z,88.10
2018-10-05T01:22:42.550Z,88.40
2018-10-05T01:25:17.582Z,88.30
2018-10-05T01:27:52.618Z,88.00
2018-10-05T01:30:26.828Z,87.60
2018-10-05T01:33:00.636Z,87.90
2018-10-05T01:35:35.460Z,88.40
2018-10-05T01:38:10.498Z,88.80
2018-10-05T01:40:46.554Z,88.80
2018-10-05T01:43:22.609Z,88.90
2018-10-05T01:45:57.237Z,88.70
2018-10-05T01:48:36.573Z,88.60
2018-10-05T01:51:12.834Z,88.40
2018-10-05T01:53:48.477Z,88.30
2018-10-05T01:56:26.587Z,88.40
2018-10-05T01:59:09.200Z,88.50
2018-10-05T02:01:44.435Z,88.80
2018-10-05T02:04:18.445Z,88.70
2018-10-05T02:06:54.500Z,88.70
2018-10-05T02:09:30.356Z,88.60
2018-10-05T02:12:07.437Z,88.60
2018-10-05T02:14:41.450Z,88.40
2018-10-05T02:17:16.481Z,88.30
2018-10-05T02:19:52.540Z,88.30
2018-10-05T02:22:27.573Z,88.40
2018-10-05T02:25:03.634Z,88.60
2018-10-05T02:27:38.507Z,88.40
2018-10-05T02:30:13.899Z,88.50
2018-10-05T02:32:49.815Z,88.50
2018-10-05T02:35:23.555Z,88.50
2018-10-05T02:37:57.567Z,88.50
2018-10-05T02:40:32.607Z,88.90
2018-10-05T02:43:07.633Z,89.00
2018-10-05T02:45:43.036Z,89.00
2018-10-05T02:48:18.518Z,88.90
2018-10-05T02:50:52.327Z,88.80
2018-10-05T02:53:27.562Z,88.40
2018-10-05T02:56:02.596Z,88.30
2018-10-05T02:58:38.450Z,88.70
2018-10-05T03:01:21.037Z,88.70
2018-10-05T03:03:54.452Z,88.70
2018-10-05T03:06:29.037Z,88.70
2018-10-05T03:09:04.044Z,88.50
2018-10-05T03:11:39.555Z,88.80
2018-10-05T03:14:14.588Z,88.80
2018-10-05T03:16:49.623Z,88.50
2018-10-05T03:19:24.657Z,88.30
2018-10-05T03:22:00.510Z,88.30
2018-10-05T03:24:36.565Z,88.50
2018-10-05T03:27:12.622Z,88.80
2018-10-05T03:29:48.885Z,88.60
2018-10-05T03:32:24.740Z,88.60
2018-10-05T03:35:01.615Z,88.70
2018-10-05T03:37:36.646Z,88.80
2018-10-05T03:40:10.659Z,88.80
2018-10-05T03:42:49.583Z,88.60
2018-10-05T03:45:24.617Z,88.90
2018-10-05T03:48:00.877Z,88.70
2018-10-05T03:50:35.502Z,88.50
2018-10-05T03:53:10.739Z,88.50
2018-10-05T03:55:45.162Z,88.80
2018-10-05T03:58:19.578Z,88.70
2018-10-05T04:00:54.611Z,88.80
2018-10-05T04:03:34.768Z,88.80
2018-10-05T04:06:08.366Z,88.80
2018-10-05T04:08:46.678Z,89.00
2018-10-05T04:11:21.505Z,89.20
2018-10-05T04:14:00.449Z,88.90
2018-10-05T04:16:38.081Z,89.00
2018-10-05T04:19:17.666Z,89.20
2018-10-05T04:21:54.542Z,89.30
2018-10-05T04:24:32.648Z,89.40
2018-10-05T04:27:11.592Z,89.40
2018-10-05T04:29:47.630Z,89.40
2018-10-05T04:32:22.662Z,89.80
2018-10-05T04:34:57.901Z,89.80
2018-10-05T04:37:35.184Z,89.80
2018-10-05T04:40:11.651Z,90.10
2018-10-05T04:42:54.672Z,90.10
2018-10-05T04:45:37.702Z,90.10
2018-10-05T04:48:13.550Z,90.00
2018-10-05T04:50:48.579Z,90.10
2018-10-05T04:53:27.734Z,90.20
2018-10-05T04:56:03.564Z,90.20
2018-10-05T04:58:38.595Z,90.20
2018-10-05T05:01:14.655Z,90.20
2018-10-05T05:03:49.688Z,90.50
2018-10-05T05:06:27.480Z,90.50
2018-10-05T05:09:09.429Z,90.50
2018-10-05T05:11:47.076Z,90.70
2018-10-05T05:14:25.596Z,90.80
2018-10-05T05:17:09.640Z,90.90
2018-10-05T05:37:02.595Z,90.90
2018-10-05T05:56:54.532Z,91.00
2018-10-05T05:59:33.661Z,91.00
2018-10-05T06:19:27.651Z,91.30
2018-10-05T06:22:03.731Z,91.20
2018-10-05T06:42:02.620Z,91.00
2018-10-05T06:44:37.663Z,91.00
2018-10-05T07:04:32.846Z,89.60
2018-10-05T07:07:07.676Z,89.40
2018-10-05T07:27:00.636Z,89.50
2018-10-05T07:29:38.946Z,89.20
2018-10-05T07:32:17.664Z,89.10
2018-10-05T07:34:52.699Z,89.10
2018-10-05T07:37:28.817Z,89.10
2018-10-05T07:57:29.780Z,88.50
2018-10-05T08:00:04.734Z,88.80
2018-10-05T08:20:00.987Z,87.60
2018-10-05T08:22:42.767Z,87.80
2018-10-05T08:42:40.235Z,87.80
2018-10-05T08:45:15.883Z,87.90
2018-10-05T09:05:08.288Z,87.20
2018-10-05T09:07:44.900Z,87.20
2018-10-05T09:27:38.264Z,85.60
2018-10-05T09:30:18.008Z,85.70
2018-10-05T09:50:10.315Z,85.70
2018-10-05T09:52:46.096Z,85.40
2018-10-05T10:12:44.904Z,84.70
2018-10-05T10:15:19.936Z,85.40
2018-10-05T10:35:13.916Z,83.40
2018-10-05T10:37:51.818Z,83.80
2018-10-05T10:57:44.573Z,83.20
2018-10-05T11:00:19.201Z,83.30
2018-10-05T11:02:56.413Z,82.70
2018-10-05T11:05:30.380Z,82.20
2018-10-05T11:08:05.935Z,82.80
2018-10-05T11:28:00.326Z,81.20
2018-10-05T11:30:35.361Z,80.80
2018-10-05T11:50:27.400Z,81.50
2018-10-05T11:53:05.814Z,81.80
2018-10-05T12:10:16.160Z,81.30
2018-10-05T12:30:13.020Z,81.40
2018-10-05T12:50:05.490Z,79.60
2018-10-05T13:09:57.903Z,78.30
2018-10-05T13:29:50.046Z,79.10
2018-10-05T13:49:44.436Z,78.90
2018-10-05T13:52:20.088Z,78.90
2018-10-05T14:12:10.999Z,77.40
2018-10-05T14:14:48.080Z,77.40
2018-10-05T14:37:33.072Z,76.70
2018-10-05T14:57:27.066Z,76.60
2018-10-05T15:00:03.118Z,76.90
2018-10-05T15:19:58.121Z,78.10
2018-10-05T15:22:40.118Z,78.30
2018-10-05T15:42:33.075Z,79.90
2018-10-05T15:45:11.183Z,80.40
2018-10-05T15:47:49.491Z,80.30
2018-10-05T15:50:27.188Z,80.40
2018-10-05T16:10:20.558Z,81.40
2018-10-05T16:12:58.519Z,82.00
2018-10-05T16:32:51.212Z,84.20
2018-10-05T16:35:26.657Z,84.40
2018-10-05T16:38:03.125Z,84.50
2018-10-05T16:40:38.154Z,84.70
2018-10-05T16:43:15.244Z,84.60
2018-10-05T16:45:50.654Z,84.80
2018-10-05T16:48:32.270Z,85.10
2018-10-05T17:08:25.844Z,86.10
2018-10-05T17:11:04.207Z,86.10
2018-10-05T17:30:56.500Z,86.00
2018-10-05T17:33:31.117Z,86.30
2018-10-05T17:53:22.236Z,85.50
2018-10-05T17:55:58.148Z,85.50
2018-10-05T18:18:45.127Z,85.60
2018-10-05T18:38:37.270Z,85.90
2018-10-05T18:41:13.328Z,86.00
2018-10-05T19:01:05.263Z,86.80
2018-10-05T19:03:41.319Z,87.10
2018-10-05T19:23:34.487Z,88.20
2018-10-05T19:26:09.152Z,88.50
2018-10-05T19:46:02.068Z,88.80
2018-10-05T19:48:37.306Z,88.70
2018-10-05T20:08:29.245Z,86.80
2018-10-05T20:11:05.505Z,86.40
2018-10-05T20:30:59.726Z,87.50
2018-10-05T20:33:35.588Z,87.70
2018-10-05T20:36:12.603Z,87.80
2018-10-05T20:38:49.348Z,87.90
2018-10-05T20:41:23.515Z,87.90
2018-10-05T21:01:16.473Z,87.90
2018-10-05T21:03:51.097Z,88.10
2018-10-05T21:23:45.286Z,88.10
2018-10-05T21:26:19.293Z,88.00
2018-10-05T21:49:01.214Z,88.90
2018-10-05T21:51:38.297Z,89.10
2018-10-05T22:11:32.275Z,89.60
2018-10-05T22:14:07.313Z,89.70
2018-10-05T22:33:59.451Z,89.40
2018-10-05T22:36:35.305Z,89.40
2018-10-05T22:56:33.382Z,89.60
2018-10-05T22:59:10.464Z,89.80
2018-10-05T23:01:45.703Z,89.70
2018-10-05T23:04:20.122Z,89.90
2018-10-05T23:06:55.359Z,89.70
2018-10-05T23:09:29.985Z,89.60
2018-10-05T23:12:04.402Z,89.30
2018-10-05T23:31:55.724Z,89.10
2018-10-05T23:34:29.733Z,89.20
2018-10-05T23:54:20.440Z,89.90
2018-10-05T23:56:54.920Z,89.80
